createdAt,value
2023-05-05T00:04:07.579Z,100152.66
2023-05-05T00:09:08.842Z,100145.94
2023-05-05T00:14:10.020Z,100146.78
2023-05-05T00:19:11.283Z,100151.56
2023-05-05T00:24:12.513Z,100154.06
2023-05-05T00:29:13.764Z,100139.34
2023-05-05T00:34:14.995Z,100130.81
2023-05-05T00:39:16.229Z,100133.66
2023-05-05T00:44:17.419Z,100135.47
2023-05-05T00:49:18.661Z,100127.84
2023-05-05T00:54:19.944Z,100146.38
2023-05-05T00:59:21.227Z,100142.78
2023-05-05T01:04:22.442Z,100138.13
2023-05-05T01:09:23.998Z,100139.69
2023-05-05T01:14:25.224Z,100145.38
2023-05-05T01:19:26.430Z,100146.41
2023-05-05T01:24:28.094Z,100141.34
2023-05-05T01:29:29.301Z,100136.16
2023-05-05T01:34:30.909Z,100147.28
2023-05-05T01:39:32.123Z,100143.63
2023-05-05T01:44:33.732Z,100143.81
2023-05-05T01:49:35.573Z,100141.94
2023-05-05T01:54:37.843Z,100154.25
2023-05-05T01:59:39.103Z,100160.66
2023-05-05T02:04:40.310Z,100155.28
2023-05-05T02:09:41.583Z,100162.78
2023-05-05T02:14:42.760Z,100169.81
2023-05-05T02:19:44.041Z,100185.53
2023-05-05T02:24:45.235Z,100184.31
2023-05-05T02:29:46.832Z,100180.88
2023-05-05T02:34:48.029Z,100184.94
2023-05-05T02:39:51.629Z,100193.16
2023-05-05T02:44:52.880Z,100206.06
2023-05-05T02:49:54.088Z,100204.63
2023-05-05T02:54:55.267Z,100204.50
2023-05-05T02:59:56.538Z,100206.81
2023-05-05T03:04:57.772Z,100206.72
2023-05-05T03:09:58.991Z,100203.13
2023-05-05T03:15:00.262Z,100202.81
2023-05-05T03:20:04.354Z,100216.16
2023-05-05T03:25:06.161Z,100219.41
2023-05-05T03:30:07.588Z,100206.38
2023-05-05T03:35:09.193Z,100206.97
2023-05-05T03:40:10.510Z,100206.50
2023-05-05T03:45:11.778Z,100206.38
2023-05-05T03:50:13.045Z,100201.56
2023-05-05T03:55:14.303Z,100210.28
2023-05-05T04:00:15.591Z,100207.78
2023-05-05T04:05:16.836Z,100206.84
2023-05-05T04:10:18.115Z,100216.31
2023-05-05T04:15:19.282Z,100216.94
2023-05-05T04:20:20.507Z,100225.16
2023-05-05T04:25:21.701Z,100236.47
2023-05-05T04:30:22.916Z,100249.22
2023-05-05T04:35:24.176Z,100247.06
2023-05-05T04:40:26.242Z,100255.47
2023-05-05T04:45:27.474Z,100249.41
2023-05-05T04:50:28.718Z,100247.84
2023-05-05T04:55:29.979Z,100242.88
2023-05-05T05:00:31.210Z,100250.19
2023-05-05T05:05:32.371Z,100249.25
2023-05-05T05:10:33.626Z,100270.38
2023-05-05T05:15:34.898Z,100270.06
2023-05-05T05:20:36.230Z,100274.25
2023-05-05T05:25:37.461Z,100275.03
2023-05-05T05:30:38.694Z,100272.50
2023-05-05T05:35:39.982Z,100277.72
2023-05-05T05:40:41.258Z,100286.59
2023-05-05T05:45:42.459Z,100286.13
2023-05-05T05:50:43.778Z,100286.06
2023-05-05T05:55:45.038Z,100284.78
2023-05-05T06:00:46.695Z,100283.53
2023-05-05T06:05:47.922Z,100283.03
2023-05-05T06:10:49.285Z,100288.91
2023-05-05T06:15:50.624Z,100296.34
2023-05-05T06:20:52.273Z,100304.44
2023-05-05T06:25:55.283Z,100306.47
2023-05-05T06:30:57.038Z,100305.66
2023-05-05T06:35:58.250Z,100306.66
2023-05-05T06:40:59.484Z,100304.84
2023-05-05T06:46:00.796Z,100311.09
2023-05-05T06:51:02.978Z,100316.00
2023-05-05T06:56:04.253Z,100314.72
2023-05-05T07:01:05.846Z,100312.22
2023-05-05T07:06:07.107Z,100308.63
2023-05-05T07:11:08.271Z,100317.88
2023-05-05T07:16:09.501Z,100329.66
2023-05-05T07:21:10.699Z,100337.63
2023-05-05T07:26:12.031Z,100338.84
2023-05-05T07:31:13.379Z,100345.84
2023-05-05T07:36:14.553Z,100353.28
2023-05-05T07:41:15.929Z,100350.06
2023-05-05T07:46:17.151Z,100345.38
2023-05-05T07:51:18.370Z,100353.34
2023-05-05T07:56:21.701Z,100348.91
2023-05-05T08:01:23.190Z,100344.13
2023-05-05T08:06:25.252Z,100345.06
2023-05-05T08:11:28.998Z,100349.22
2023-05-05T08:16:31.045Z,100351.03
2023-05-05T08:21:32.319Z,100341.16
2023-05-05T08:26:33.600Z,100348.91
2023-05-05T08:31:34.835Z,100353.56
2023-05-05T08:36:36.143Z,100349.31
2023-05-05T08:41:37.382Z,100345.75
2023-05-05T08:46:38.637Z,100343.31
2023-05-05T08:51:39.942Z,100350.59
2023-05-05T08:56:44.916Z,100346.31
2023-05-05T09:01:46.177Z,100349.19
2023-05-05T09:06:47.352Z,100357.25
2023-05-05T09:11:48.577Z,100363.78
2023-05-05T09:16:49.875Z,100359.59
2023-05-05T09:21:51.242Z,100354.84
2023-05-05T09:26:55.985Z,100369.41
2023-05-05T09:31:58.765Z,100371.78
2023-05-05T09:36:59.939Z,100362.44
2023-05-05T09:42:01.253Z,100359.44
2023-05-05T09:47:05.250Z,100360.03
2023-05-05T09:52:08.483Z,100341.75
2023-05-05T09:57:09.652Z,100347.75
2023-05-05T10:02:11.748Z,100348.09
2023-05-05T10:07:12.951Z,100332.03
2023-05-05T10:12:14.115Z,100333.59
2023-05-05T10:17:15.445Z,100333.56
2023-05-05T10:22:16.747Z,100333.34
2023-05-05T10:27:17.995Z,100302.84
2023-05-05T10:32:47.144Z,100315.66
2023-05-05T10:37:40.618Z,100311.97
2023-05-05T10:42:41.849Z,100294.00
2023-05-05T10:47:44.330Z,100284.16
2023-05-05T10:52:45.776Z,100285.94
2023-05-05T10:57:47.122Z,100278.66
2023-05-05T11:02:48.314Z,100265.03
2023-05-05T11:07:49.929Z,100269.72
2023-05-05T11:12:51.181Z,100265.69
2023-05-05T11:17:52.556Z,100258.28
2023-05-05T11:22:53.806Z,100265.13
2023-05-05T11:27:55.008Z,100249.84
2023-05-05T11:32:56.267Z,100254.94
2023-05-05T11:37:57.517Z,100265.72
2023-05-05T11:42:58.697Z,100282.06
2023-05-05T11:47:59.938Z,100290.19
2023-05-05T11:53:01.155Z,100306.84
2023-05-05T11:58:02.372Z,100326.88
2023-05-05T12:03:03.635Z,100331.91
2023-05-05T12:08:04.985Z,100337.44
2023-05-05T12:13:06.217Z,100344.50
2023-05-05T12:18:07.676Z,100320.28
2023-05-05T12:23:12.247Z,100299.16
2023-05-05T12:28:13.518Z,100290.06
2023-05-05T12:33:14.699Z,100291.72
2023-05-05T12:38:16.182Z,100292.16
2023-05-05T12:43:17.368Z,100297.81
2023-05-05T12:48:18.563Z,100296.88
2023-05-05T12:53:19.748Z,100289.78
2023-05-05T12:58:21.592Z,100292.28
2023-05-05T13:03:22.846Z,100283.19
2023-05-05T13:08:25.315Z,100292.03
2023-05-05T13:13:26.957Z,100292.59
2023-05-05T13:18:28.252Z,100282.38
2023-05-05T13:23:29.486Z,100288.59
2023-05-05T13:28:30.886Z,100297.88
2023-05-05T13:33:32.116Z,100300.72
2023-05-05T13:38:33.431Z,100289.81
2023-05-05T13:43:34.658Z,100288.38
2023-05-05T13:48:35.855Z,100279.00
2023-05-05T13:53:37.202Z,100277.16
2023-05-05T13:58:38.380Z,100260.63
2023-05-05T14:03:39.825Z,100257.31
2023-05-05T14:08:41.530Z,100251.09
2023-05-05T14:13:43.432Z,100242.34
2023-05-05T14:18:44.611Z,100243.44
2023-05-05T14:23:45.924Z,100240.16
2023-05-05T14:28:49.066Z,100227.94
2023-05-05T14:33:51.273Z,100227.44
2023-05-05T14:38:52.592Z,100234.75
2023-05-05T14:43:53.949Z,100230.63
2023-05-05T14:48:55.174Z,100232.16
2023-05-05T14:59:40.496Z,100238.19
2023-05-05T15:04:41.734Z,100252.44
2023-05-05T15:09:42.998Z,100276.78
2023-05-05T15:14:44.260Z,100301.03
2023-05-05T15:19:45.655Z,100295.13
2023-05-05T15:24:46.881Z,100261.22
2023-05-05T15:29:48.787Z,100291.88
2023-05-05T15:34:50.455Z,100283.03
2023-05-05T15:39:51.875Z,100285.13
2023-05-05T15:44:53.094Z,100299.59
2023-05-05T15:49:54.309Z,100290.91
2023-05-05T15:54:55.545Z,100281.81
2023-05-05T15:59:56.835Z,100276.00
2023-05-05T16:04:58.150Z,100271.22
2023-05-05T16:09:59.403Z,100277.47
2023-05-05T16:15:00.728Z,100274.28
2023-05-05T16:20:02.113Z,100274.28
2023-05-05T16:25:03.387Z,100272.56
2023-05-05T16:30:04.632Z,100262.91
2023-05-05T16:35:07.467Z,100272.19
2023-05-05T16:40:09.060Z,100279.06
2023-05-05T16:45:10.517Z,100287.94
2023-05-05T16:50:11.872Z,100298.28
2023-05-05T16:55:13.259Z,100288.56
2023-05-05T17:00:14.619Z,100277.38
2023-05-05T17:05:17.620Z,100283.16
2023-05-05T17:10:19.104Z,100285.31
2023-05-05T17:15:21.198Z,100286.34
2023-05-05T17:20:22.689Z,100294.25
2023-05-05T17:25:26.100Z,100295.69
2023-05-05T17:30:27.727Z,100286.75
2023-05-05T17:35:29.685Z,100286.50
2023-05-05T17:40:30.871Z,100292.16
2023-05-05T17:45:32.154Z,100291.41
2023-05-05T17:50:33.381Z,100295.16
2023-05-05T17:55:34.517Z,100298.75
2023-05-05T18:00:35.708Z,100308.25
2023-05-05T18:05:36.990Z,100312.16
2023-05-05T18:10:38.223Z,100326.28
2023-05-05T18:15:40.219Z,100348.38
2023-05-05T18:20:41.488Z,100354.44
2023-05-05T18:25:42.864Z,100346.69
2023-05-05T18:30:44.103Z,100352.44
2023-05-05T18:35:45.831Z,100343.75
2023-05-05T18:40:47.099Z,100340.78
2023-05-05T18:45:48.369Z,100347.63
2023-05-05T18:50:51.274Z,100344.06
2023-05-05T18:55:52.594Z,100331.28
2023-05-05T19:00:53.842Z,100335.03
2023-05-05T19:05:55.198Z,100340.34
2023-05-05T19:10:56.367Z,100346.69
2023-05-05T19:15:57.891Z,100336.13
2023-05-05T19:20:59.214Z,100328.19
2023-05-05T19:26:00.620Z,100337.66
2023-05-05T19:31:01.914Z,100336.41
2023-05-05T19:36:03.226Z,100334.06
2023-05-05T19:41:04.450Z,100346.31
2023-05-05T19:46:05.751Z,100350.97
2023-05-05T19:51:06.924Z,100352.97
2023-05-05T19:56:08.297Z,100350.31
2023-05-05T20:01:09.468Z,100354.00
2023-05-05T20:06:10.794Z,100362.75
2023-05-05T20:11:12.012Z,100362.53
2023-05-05T20:16:13.309Z,100361.25
2023-05-05T20:21:14.584Z,100360.53
2023-05-05T20:26:15.841Z,100355.75
2023-05-05T20:31:17.108Z,100358.91
2023-05-05T20:36:18.486Z,100365.81
2023-05-05T20:41:19.760Z,100362.97
2023-05-05T20:46:21.064Z,100355.25
2023-05-05T20:51:22.353Z,100353.94
2023-05-05T20:56:23.534Z,100361.47
2023-05-05T21:01:24.738Z,100358.47
2023-05-05T21:06:26.054Z,100362.59
2023-05-05T21:11:27.235Z,100363.44
2023-05-05T21:16:28.505Z,100364.72
2023-05-05T21:21:29.750Z,100363.94
2023-05-05T21:26:30.940Z,100368.78
2023-05-05T21:31:32.113Z,100362.31
2023-05-05T21:36:33.826Z,100364.22
2023-05-05T21:41:35.345Z,100373.19
2023-05-05T21:46:36.602Z,100384.25
2023-05-05T21:51:37.807Z,100372.59
2023-05-05T21:56:39.004Z,100375.38
2023-05-05T22:01:40.357Z,100371.31
2023-05-05T22:06:41.870Z,100367.41
2023-05-05T22:11:43.085Z,100369.88
2023-05-05T22:16:44.350Z,100377.94
2023-05-05T22:21:45.527Z,100371.91
2023-05-05T22:26:46.678Z,100369.97
2023-05-05T22:31:47.946Z,100370.16
2023-05-05T22:36:49.263Z,100375.25
2023-05-05T22:41:50.415Z,100379.63
2023-05-05T22:46:51.623Z,100368.16
2023-05-05T22:51:53.546Z,100372.25
2023-05-05T22:56:54.767Z,100380.22
2023-05-05T23:01:55.979Z,100385.66
2023-05-05T23:06:57.367Z,100377.34
2023-05-05T23:11:58.734Z,100377.34
2023-05-05T23:16:59.956Z,100384.06
2023-05-05T23:22:01.220Z,100375.09
2023-05-05T23:27:03.001Z,100373.34
2023-05-05T23:32:04.236Z,100375.84
2023-05-05T23:37:06.314Z,100378.31
2023-05-05T23:42:07.679Z,100367.91
2023-05-05T23:47:08.901Z,100380.22
2023-05-05T23:52:10.669Z,100375.13
2023-05-05T23:57:11.869Z,100367.56
